createdAt,value
2023-01-29T00:03:33.762Z,31.45
2023-01-29T00:06:20.949Z,27.75
2023-01-29T00:09:08.101Z,28.30
2023-01-29T00:11:55.236Z,31.60
2023-01-29T00:14:42.390Z,32.30
2023-01-29T00:17:29.505Z,35.33
2023-01-29T00:20:17.693Z,34.03
2023-01-29T00:23:04.986Z,29.80
2023-01-29T00:25:52.078Z,34.25
2023-01-29T00:28:39.159Z,32.28
2023-01-29T00:31:26.577Z,27.58
2023-01-29T00:34:13.934Z,32.72
2023-01-29T00:37:04.903Z,31.38
2023-01-29T00:39:51.954Z,28.55
2023-01-29T00:42:57.784Z,32.22
2023-01-29T00:45:44.809Z,30.35
2023-01-29T00:48:31.913Z,34.85
2023-01-29T00:51:18.968Z,29.85
2023-01-29T00:54:07.000Z,30.50
2023-01-29T00:56:54.073Z,39.22
2023-01-29T00:59:41.342Z,33.70
2023-01-29T01:02:51.788Z,33.00
2023-01-29T01:05:39.357Z,31.35
2023-01-29T01:08:44.999Z,32.30
2023-01-29T01:11:33.835Z,33.13
2023-01-29T01:14:21.198Z,32.38
2023-01-29T01:17:08.290Z,34.60
2023-01-29T01:19:55.353Z,31.40
2023-01-29T01:22:42.629Z,30.50
2023-01-29T01:25:29.710Z,28.92
2023-01-29T01:28:17.191Z,31.90
2023-01-29T01:31:12.788Z,32.80
2023-01-29T01:34:00.063Z,31.55
2023-01-29T01:36:47.200Z,32.85
2023-01-29T01:39:34.266Z,34.65
2023-01-29T01:42:21.289Z,29.52
2023-01-29T01:45:22.609Z,28.15
2023-01-29T01:48:23.364Z,34.53
2023-01-29T01:51:10.781Z,30.65
2023-01-29T01:54:06.145Z,29.50
2023-01-29T01:57:05.094Z,30.05
2023-01-29T02:00:10.913Z,26.50
2023-01-29T02:03:16.652Z,33.67
2023-01-29T02:06:22.497Z,31.88
2023-01-29T02:09:35.910Z,30.65
2023-01-29T02:12:23.559Z,31.52
2023-01-29T02:15:11.965Z,28.95
2023-01-29T02:17:59.360Z,27.38
2023-01-29T02:21:25.351Z,28.42
2023-01-29T02:24:42.547Z,26.73
2023-01-29T02:27:56.962Z,28.05
2023-01-29T02:31:21.105Z,30.30
2023-01-29T02:34:23.322Z,26.05
2023-01-29T02:37:13.536Z,26.20
2023-01-29T02:43:32.715Z,26.55
2023-01-29T02:46:58.820Z,27.50
2023-01-29T02:49:56.444Z,25.33
2023-01-29T02:53:06.075Z,24.35
2023-01-29T02:56:03.789Z,24.10
2023-01-29T02:59:16.454Z,28.25
2023-01-29T03:02:10.024Z,25.80
2023-01-29T03:05:01.770Z,26.65
2023-01-29T03:07:59.369Z,28.27
2023-01-29T03:10:54.640Z,25.60
2023-01-29T03:13:44.292Z,25.80
2023-01-29T03:16:42.105Z,23.55
2023-01-29T03:19:41.930Z,27.20
2023-01-29T03:22:31.038Z,25.38
2023-01-29T03:25:41.787Z,25.40
2023-01-29T03:28:49.460Z,25.73
2023-01-29T03:31:56.334Z,23.58
2023-01-29T03:34:57.864Z,24.48
2023-01-29T03:37:48.137Z,21.58
2023-01-29T03:43:44.994Z,21.55
2023-01-29T03:46:48.917Z,24.80
2023-01-29T03:50:03.191Z,27.70
2023-01-29T03:53:04.681Z,25.73
2023-01-29T03:56:07.694Z,23.23
2023-01-29T03:59:20.512Z,26.40
2023-01-29T04:02:13.796Z,25.13
2023-01-29T04:05:09.688Z,21.35
2023-01-29T04:08:05.238Z,26.85
2023-01-29T04:10:57.480Z,23.90
2023-01-29T04:13:46.326Z,23.83
2023-01-29T04:16:44.593Z,25.00
2023-01-29T04:19:31.879Z,26.15
2023-01-29T04:22:29.960Z,23.73
2023-01-29T04:25:26.870Z,26.02
2023-01-29T04:28:23.398Z,28.63
2023-01-29T04:31:13.724Z,23.92
2023-01-29T04:34:22.031Z,25.85
2023-01-29T04:37:35.431Z,25.73
2023-01-29T04:40:50.339Z,24.75
2023-01-29T04:43:55.691Z,25.92
2023-01-29T04:47:07.319Z,23.27
2023-01-29T04:50:13.352Z,25.50
2023-01-29T04:53:18.796Z,27.70
2023-01-29T04:56:29.737Z,28.25
2023-01-29T04:59:32.505Z,24.05
2023-01-29T05:02:21.824Z,26.90
2023-01-29T05:05:10.856Z,21.67
2023-01-29T05:07:59.375Z,23.13
2023-01-29T05:10:49.722Z,23.60
2023-01-29T05:13:39.948Z,25.00
2023-01-29T05:19:17.815Z,25.08
2023-01-29T05:22:16.053Z,26.80
2023-01-29T05:25:03.203Z,23.70
2023-01-29T05:28:10.531Z,22.10
2023-01-29T05:30:58.076Z,23.15
2023-01-29T05:33:45.190Z,22.83
2023-01-29T05:36:32.299Z,21.88
2023-01-29T05:39:19.556Z,24.52
2023-01-29T05:42:06.652Z,25.23
2023-01-29T05:44:53.763Z,23.92
2023-01-29T05:47:40.821Z,26.55
2023-01-29T05:50:28.138Z,26.05
2023-01-29T05:53:15.629Z,24.83
2023-01-29T05:56:04.658Z,23.50
2023-01-29T05:58:51.806Z,25.52
2023-01-29T06:01:39.267Z,23.83
2023-01-29T06:04:26.393Z,24.88
2023-01-29T06:07:13.513Z,28.15
2023-01-29T06:10:00.643Z,25.73
2023-01-29T06:12:47.747Z,23.00
2023-01-29T06:15:34.873Z,22.42
2023-01-29T06:18:22.014Z,24.30
2023-01-29T06:21:11.881Z,26.05
2023-01-29T06:23:59.053Z,27.95
2023-01-29T06:26:46.203Z,27.08
2023-01-29T06:29:33.329Z,26.20
2023-01-29T06:32:22.093Z,27.45
2023-01-29T06:35:10.843Z,30.98
2023-01-29T06:37:58.064Z,27.45
2023-01-29T06:40:45.080Z,24.65
2023-01-29T06:43:32.201Z,29.90
2023-01-29T06:46:19.271Z,22.77
2023-01-29T06:49:06.407Z,26.27
2023-01-29T06:51:53.482Z,24.27
2023-01-29T06:54:40.572Z,24.50
2023-01-29T06:57:29.739Z,26.40
2023-01-29T07:00:17.710Z,25.60
2023-01-29T07:03:05.252Z,25.35
2023-01-29T07:05:53.993Z,26.20
2023-01-29T07:08:41.027Z,22.75
2023-01-29T07:11:28.082Z,25.58
2023-01-29T07:14:15.179Z,25.13
2023-01-29T07:17:02.254Z,23.38
2023-01-29T07:19:49.340Z,26.63
2023-01-29T07:22:36.509Z,26.95
2023-01-29T07:25:24.634Z,22.50
2023-01-29T07:28:11.712Z,23.63
2023-01-29T07:30:59.375Z,22.67
2023-01-29T07:33:46.630Z,26.75
2023-01-29T07:36:33.732Z,26.63
2023-01-29T07:39:20.825Z,26.98
2023-01-29T07:42:07.964Z,29.77
2023-01-29T07:44:55.076Z,25.70
2023-01-29T07:47:42.201Z,26.17
2023-01-29T07:50:29.269Z,29.90
2023-01-29T07:53:16.577Z,27.73
2023-01-29T07:56:03.801Z,23.27
2023-01-29T07:58:50.900Z,27.23
2023-01-29T08:01:38.082Z,28.15
2023-01-29T08:04:25.387Z,24.55
2023-01-29T08:07:12.425Z,27.60
2023-01-29T08:09:59.634Z,25.50
2023-01-29T08:12:54.541Z,27.25
2023-01-29T08:15:45.880Z,31.52
2023-01-29T08:18:33.057Z,28.15
2023-01-29T08:21:21.180Z,26.98
2023-01-29T08:24:08.461Z,28.77
2023-01-29T08:26:55.546Z,30.52
2023-01-29T08:29:42.627Z,30.65
2023-01-29T08:32:29.740Z,32.20
2023-01-29T08:35:16.893Z,29.67
2023-01-29T08:38:05.269Z,29.20
2023-01-29T08:40:52.346Z,28.58
2023-01-29T08:43:39.950Z,29.88
2023-01-29T08:46:27.119Z,24.10
2023-01-29T08:49:14.360Z,26.83
2023-01-29T08:52:03.059Z,30.23
2023-01-29T08:54:51.844Z,27.48
2023-01-29T08:57:39.652Z,26.80
2023-01-29T09:00:26.772Z,26.52
2023-01-29T09:03:14.079Z,29.67
2023-01-29T09:06:01.175Z,28.80
2023-01-29T09:08:49.838Z,29.25
2023-01-29T09:11:38.281Z,27.20
2023-01-29T09:14:25.360Z,26.33
2023-01-29T09:17:12.454Z,29.05
2023-01-29T09:19:59.578Z,30.58
2023-01-29T09:22:47.336Z,27.88
2023-01-29T09:25:34.702Z,28.60
2023-01-29T09:28:21.920Z,28.08
2023-01-29T09:31:09.045Z,29.85
2023-01-29T09:33:56.225Z,26.02
2023-01-29T09:36:43.419Z,29.38
2023-01-29T09:39:30.569Z,28.52
2023-01-29T09:42:42.093Z,26.85
2023-01-29T09:45:30.666Z,24.30
2023-01-29T09:48:18.978Z,24.13
2023-01-29T09:51:15.452Z,24.67
2023-01-29T09:54:20.388Z,22.13
2023-01-29T09:57:19.613Z,24.35
2023-01-29T10:00:13.697Z,21.87
2023-01-29T10:03:23.810Z,25.08
2023-01-29T10:06:23.685Z,21.27
2023-01-29T10:09:38.772Z,24.38
2023-01-29T10:12:48.927Z,19.67
2023-01-29T10:16:02.184Z,20.63
2023-01-29T10:19:01.227Z,18.30
2023-01-29T10:21:51.066Z,20.50
2023-01-29T10:24:43.624Z,20.35
2023-01-29T10:27:40.592Z,22.33
2023-01-29T10:30:41.000Z,21.98
2023-01-29T10:33:49.356Z,21.10
2023-01-29T10:36:49.156Z,20.25
2023-01-29T10:39:36.335Z,21.60
2023-01-29T10:42:34.619Z,19.42
2023-01-29T10:45:33.454Z,26.83
2023-01-29T10:48:37.969Z,20.55
2023-01-29T10:51:46.847Z,21.70
2023-01-29T10:54:53.129Z,19.13
2023-01-29T10:58:09.757Z,20.15
2023-01-29T11:00:57.221Z,21.23
2023-01-29T11:03:44.721Z,20.48
2023-01-29T11:06:35.408Z,20.17
2023-01-29T11:09:35.746Z,22.48
2023-01-29T11:12:30.569Z,20.58
2023-01-29T11:15:30.772Z,19.38
2023-01-29T11:18:18.966Z,19.95
2023-01-29T11:21:06.857Z,20.67
2023-01-29T11:24:19.059Z,19.85
2023-01-29T11:27:23.904Z,18.98
2023-01-29T11:30:22.088Z,17.65
2023-01-29T11:33:23.976Z,19.08
2023-01-29T11:36:34.730Z,18.77
2023-01-29T11:39:26.170Z,19.70
2023-01-29T11:42:21.429Z,18.25
2023-01-29T11:45:26.542Z,18.02
2023-01-29T11:48:23.411Z,17.60
2023-01-29T11:51:22.746Z,18.80
2023-01-29T11:54:18.290Z,17.67
2023-01-29T11:57:22.362Z,17.60
2023-01-29T12:00:35.218Z,15.18
2023-01-29T12:03:37.914Z,14.98
2023-01-29T12:06:42.165Z,16.40
2023-01-29T12:09:31.405Z,14.35
2023-01-29T12:12:30.192Z,14.20
2023-01-29T12:15:25.362Z,17.65
2023-01-29T12:18:27.264Z,14.13
2023-01-29T12:21:27.161Z,15.75
2023-01-29T12:24:42.320Z,15.05
2023-01-29T12:28:09.317Z,12.82
2023-01-29T12:31:24.103Z,15.52
2023-01-29T12:34:33.259Z,11.95
2023-01-29T12:37:42.365Z,16.73
2023-01-29T12:40:40.468Z,13.32
2023-01-29T12:43:47.482Z,13.75
2023-01-29T12:46:43.383Z,13.15
2023-01-29T12:49:35.474Z,13.05
2023-01-29T12:52:43.521Z,12.77
2023-01-29T12:55:44.976Z,14.38
2023-01-29T12:59:00.828Z,10.90
2023-01-29T13:02:01.628Z,14.40
2023-01-29T13:05:19.820Z,11.85
2023-01-29T13:08:31.064Z,9.65
2023-01-29T13:11:41.742Z,13.80
2023-01-29T13:14:47.525Z,11.50
2023-01-29T13:17:45.436Z,11.48
2023-01-29T13:20:35.709Z,10.35
2023-01-29T13:26:26.783Z,8.68
2023-01-29T13:29:30.051Z,13.10
2023-01-29T13:32:27.477Z,10.55
2023-01-29T13:35:16.157Z,11.05
2023-01-29T13:38:07.752Z,10.35
2023-01-29T13:41:01.752Z,10.00
2023-01-29T13:43:51.037Z,8.95
2023-01-29T13:46:42.204Z,10.45
2023-01-29T13:49:47.116Z,10.10
2023-01-29T13:52:52.867Z,10.55
2023-01-29T13:55:41.496Z,10.23
2023-01-29T13:58:31.701Z,12.88
2023-01-29T14:04:29.901Z,10.10
2023-01-29T14:07:45.169Z,9.95
2023-01-29T14:10:34.454Z,10.68
2023-01-29T14:13:21.641Z,9.73
2023-01-29T14:16:14.788Z,12.63
2023-01-29T14:19:05.516Z,9.85
2023-01-29T14:21:53.092Z,9.77
2023-01-29T14:24:43.732Z,10.40
2023-01-29T14:27:32.237Z,10.00
2023-01-29T14:30:19.682Z,13.32
2023-01-29T14:33:33.445Z,11.40
2023-01-29T14:36:24.318Z,9.57
2023-01-29T14:39:44.244Z,11.40
2023-01-29T14:42:40.431Z,11.35
2023-01-29T14:45:30.823Z,10.40
2023-01-29T14:48:38.830Z,11.05
2023-01-29T14:51:32.300Z,11.55
2023-01-29T14:54:26.603Z,11.50
2023-01-29T14:57:18.195Z,10.05
2023-01-29T15:00:15.641Z,11.30
2023-01-29T15:03:13.199Z,12.05
2023-01-29T15:06:02.094Z,15.85
2023-01-29T15:09:18.997Z,10.82
2023-01-29T15:12:16.537Z,12.57
2023-01-29T15:15:11.582Z,13.38
2023-01-29T15:18:34.182Z,16.50
2023-01-29T15:21:21.437Z,15.70
2023-01-29T15:24:14.005Z,13.30
2023-01-29T15:27:03.348Z,12.25
2023-01-29T15:30:00.508Z,11.73
2023-01-29T15:32:48.676Z,15.80
2023-01-29T15:35:42.095Z,10.73
2023-01-29T15:38:30.248Z,10.02
2023-01-29T15:41:23.868Z,10.05
2023-01-29T15:44:27.039Z,12.50
2023-01-29T15:47:16.141Z,10.02
2023-01-29T15:50:04.507Z,10.33
2023-01-29T15:52:53.892Z,10.93
2023-01-29T15:55:42.615Z,9.23
2023-01-29T15:58:32.929Z,10.18
2023-01-29T16:01:25.175Z,10.20
2023-01-29T16:04:24.917Z,9.88
2023-01-29T16:07:12.734Z,9.50
2023-01-29T16:10:01.086Z,8.60
2023-01-29T16:12:54.333Z,11.57
2023-01-29T16:15:56.510Z,12.27
2023-01-29T16:18:59.001Z,11.02
2023-01-29T16:22:01.161Z,13.20
2023-01-29T16:24:53.685Z,11.40
2023-01-29T16:27:45.086Z,13.40
2023-01-29T16:30:33.231Z,12.82
2023-01-29T16:33:22.089Z,13.20
2023-01-29T16:36:28.596Z,10.25
2023-01-29T16:39:22.429Z,12.07
2023-01-29T16:42:13.492Z,10.60
2023-01-29T16:45:03.604Z,10.75
2023-01-29T16:48:23.205Z,11.63
2023-01-29T16:51:45.053Z,12.48
2023-01-29T16:54:32.695Z,10.95
2023-01-29T16:57:27.491Z,12.30
2023-01-29T17:00:26.266Z,12.32
2023-01-29T17:03:16.266Z,12.60
2023-01-29T17:06:13.742Z,14.15
2023-01-29T17:09:02.225Z,11.68
2023-01-29T17:11:58.689Z,12.90
2023-01-29T17:15:06.924Z,13.20
2023-01-29T17:17:54.958Z,14.88
2023-01-29T17:20:43.945Z,13.88
2023-01-29T17:23:31.692Z,14.02
2023-01-29T17:26:20.592Z,15.55
2023-01-29T17:29:20.622Z,14.23
2023-01-29T17:32:10.605Z,12.15
2023-01-29T17:35:00.575Z,12.52
2023-01-29T17:37:48.847Z,13.90
2023-01-29T17:40:44.880Z,15.13
2023-01-29T17:43:33.266Z,14.27
2023-01-29T17:46:22.471Z,16.35
2023-01-29T17:49:23.622Z,14.73
2023-01-29T17:52:11.603Z,13.95
2023-01-29T17:54:59.279Z,13.15
2023-01-29T17:57:47.047Z,16.38
2023-01-29T18:00:36.362Z,13.55
2023-01-29T18:03:24.523Z,13.25
2023-01-29T18:06:25.590Z,13.80
2023-01-29T18:09:15.636Z,21.02
2023-01-29T18:12:03.861Z,17.98
2023-01-29T18:14:51.995Z,14.20
2023-01-29T18:17:41.197Z,15.50
2023-01-29T18:20:30.566Z,17.60
2023-01-29T18:23:21.815Z,15.90
2023-01-29T18:26:18.036Z,16.63
2023-01-29T18:29:10.520Z,15.43
2023-01-29T18:31:58.979Z,16.02
2023-01-29T18:34:46.774Z,15.43
2023-01-29T18:37:42.337Z,15.95
2023-01-29T18:40:31.561Z,18.40
2023-01-29T18:43:21.774Z,15.73
2023-01-29T18:48:57.960Z,13.50
2023-01-29T18:51:46.125Z,15.07
2023-01-29T18:54:34.235Z,15.68
2023-01-29T18:58:27.338Z,18.40
2023-01-29T19:00:33.944Z,17.83
2023-01-29T19:03:22.335Z,14.18
2023-01-29T19:06:12.320Z,15.15
2023-01-29T19:09:01.144Z,15.57
2023-01-29T19:11:49.142Z,15.18
2023-01-29T19:14:37.667Z,16.77
2023-01-29T19:17:26.055Z,16.80
2023-01-29T19:20:14.767Z,16.92
2023-01-29T19:23:03.631Z,17.13
2023-01-29T19:25:52.899Z,16.92
2023-01-29T19:28:41.440Z,17.35
2023-01-29T19:31:32.372Z,16.73
2023-01-29T19:34:21.420Z,20.48
2023-01-29T19:37:09.237Z,18.00
2023-01-29T19:39:59.833Z,16.35
2023-01-29T19:42:49.251Z,15.77
2023-01-29T19:45:49.435Z,16.45
2023-01-29T19:48:38.292Z,20.50
2023-01-29T19:51:29.063Z,18.10
2023-01-29T19:54:17.257Z,24.23
2023-01-29T19:57:07.289Z,20.63
2023-01-29T19:59:56.570Z,20.60
2023-01-29T20:02:44.490Z,17.23
2023-01-29T20:05:39.875Z,22.58
2023-01-29T20:08:28.558Z,17.42
2023-01-29T20:11:20.055Z,19.55
2023-01-29T20:14:08.339Z,18.70
2023-01-29T20:16:56.343Z,18.08
2023-01-29T20:19:45.602Z,20.00
2023-01-29T20:22:33.417Z,20.83
2023-01-29T20:25:21.309Z,19.40
2023-01-29T20:28:13.891Z,19.35
2023-01-29T20:31:01.827Z,21.05
2023-01-29T20:33:51.812Z,19.75
2023-01-29T20:39:30.631Z,18.75
2023-01-29T20:42:18.664Z,18.20
2023-01-29T20:45:07.797Z,17.02
2023-01-29T20:47:59.257Z,15.90
2023-01-29T20:50:47.394Z,16.30
2023-01-29T20:53:36.471Z,18.60
2023-01-29T20:56:36.925Z,18.10
2023-01-29T20:59:31.964Z,18.08
2023-01-29T21:02:26.529Z,17.25
2023-01-29T21:05:16.305Z,19.73
2023-01-29T21:08:04.531Z,17.88
2023-01-29T21:10:56.229Z,16.88
2023-01-29T21:13:47.494Z,14.82
2023-01-29T21:16:35.690Z,19.48
2023-01-29T21:19:23.984Z,18.85
2023-01-29T21:22:11.935Z,19.65
2023-01-29T21:24:59.747Z,18.67
2023-01-29T21:27:47.301Z,17.55
2023-01-29T21:30:35.341Z,19.58
2023-01-29T21:33:24.078Z,20.00
2023-01-29T21:36:12.713Z,22.35
2023-01-29T21:39:00.611Z,20.73
2023-01-29T21:42:09.564Z,19.58
2023-01-29T21:44:57.581Z,21.20
2023-01-29T21:47:45.294Z,17.58
2023-01-29T21:50:32.536Z,19.38
2023-01-29T21:53:19.964Z,22.50
2023-01-29T21:56:07.312Z,20.92
2023-01-29T21:58:54.542Z,19.88
2023-01-29T22:01:41.710Z,20.55
2023-01-29T22:04:29.167Z,18.05
2023-01-29T22:07:16.448Z,20.20
2023-01-29T22:10:04.540Z,22.42
2023-01-29T22:12:51.689Z,19.13
2023-01-29T22:15:38.880Z,21.33
2023-01-29T22:18:26.201Z,23.17
2023-01-29T22:21:13.248Z,22.15
2023-01-29T22:24:00.440Z,21.38
2023-01-29T22:26:49.434Z,23.30
2023-01-29T22:29:36.624Z,20.95
2023-01-29T22:32:23.815Z,21.90
2023-01-29T22:35:10.887Z,21.55
2023-01-29T22:37:57.972Z,21.98
2023-01-29T22:40:55.861Z,24.70
2023-01-29T22:43:44.203Z,25.20
2023-01-29T22:46:31.324Z,23.35
2023-01-29T22:49:19.809Z,23.02
2023-01-29T22:52:12.958Z,24.13
2023-01-29T22:55:00.043Z,24.08
2023-01-29T22:57:49.893Z,26.15
2023-01-29T23:00:36.981Z,23.52
2023-01-29T23:03:24.372Z,25.20
2023-01-29T23:06:11.422Z,25.45
2023-01-29T23:08:58.558Z,24.70
2023-01-29T23:11:45.642Z,27.85
2023-01-29T23:14:32.677Z,26.90
2023-01-29T23:17:20.005Z,24.23
2023-01-29T23:20:08.382Z,25.77
2023-01-29T23:22:55.782Z,28.23
2023-01-29T23:26:01.221Z,24.98
2023-01-29T23:28:48.616Z,26.98
2023-01-29T23:31:35.845Z,24.95
2023-01-29T23:34:23.052Z,27.42
2023-01-29T23:37:10.162Z,27.52
2023-01-29T23:39:57.270Z,26.40
2023-01-29T23:42:44.563Z,31.27
2023-01-29T23:45:31.623Z,29.35
2023-01-29T23:48:18.806Z,24.00
2023-01-29T23:51:06.104Z,27.42
2023-01-29T23:53:53.245Z,29.10
2023-01-29T23:56:40.431Z,28.05
2023-01-29T23:59:28.997Z,28.25
